sensor_id;sensor_type;location;lat;lon;timestamp;P1;durP1;ratioP1;P2;durP2;ratioP2
56171;SDS011;42052;41.634;-0.946;2024-02-14T00:00:18;8.32;;;4.40;;
56171;SDS011;42052;41.634;-0.946;2024-02-14T00:02:46;5.95;;;4.05;;
56171;SDS011;42052;41.634;-0.946;2024-02-14T00:05:15;5.75;;;4.10;;
56171;SDS011;42052;41.634;-0.946;2024-02-14T00:07:41;6.03;;;3.90;;
56171;SDS011;42052;41.634;-0.946;2024-02-14T00:10:07;6.47;;;4.47;;
56171;SDS011;42052;41.634;-0.946;2024-02-14T00:12:33;5.80;;;4.10;;
56171;SDS011;42052;41.634;-0.946;2024-02-14T00:15:01;5.80;;;4.00;;
56171;SDS011;42052;41.634;-0.946;2024-02-14T00:17:28;5.97;;;4.15;;
56171;SDS011;42052;41.634;-0.946;2024-02-14T00:19:54;6.50;;;4.07;;
56171;SDS011;42052;41.634;-0.946;2024-02-14T00:22:20;7.07;;;4.28;;
56171;SDS011;42052;41.634;-0.946;2024-02-14T00:24:46;5.97;;;4.10;;
56171;SDS011;42052;41.634;-0.946;2024-02-14T00:27:12;6.50;;;4.20;;
56171;SDS011;42052;41.634;-0.946;2024-02-14T00:29:40;5.72;;;4.07;;
56171;SDS011;42052;41.634;-0.946;2024-02-14T00:32:06;6.20;;;4.40;;
56171;SDS011;42052;41.634;-0.946;2024-02-14T00:34:32;5.65;;;3.83;;
56171;SDS011;42052;41.634;-0.946;2024-02-14T00:36:57;5.35;;;3.92;;
56171;SDS011;42052;41.634;-0.946;2024-02-14T00:39:24;6.10;;;3.95;;
56171;SDS011;42052;41.634;-0.946;2024-02-14T00:41:49;6.82;;;4.13;;
56171;SDS011;42052;41.634;-0.946;2024-02-14T00:44:17;6.50;;;3.97;;
56171;SDS011;42052;41.634;-0.946;2024-02-14T00:46:44;5.18;;;3.85;;
56171;SDS011;42052;41.634;-0.946;2024-02-14T00:49:10;5.43;;;4.00;;
56171;SDS011;42052;41.634;-0.946;2024-02-14T00:51:37;7.78;;;4.40;;
56171;SDS011;42052;41.634;-0.946;2024-02-14T00:54:05;5.03;;;3.97;;
56171;SDS011;42052;41.634;-0.946;2024-02-14T00:56:31;6.13;;;4.32;;
56171;SDS011;42052;41.634;-0.946;2024-02-14T00:58:57;6.18;;;4.10;;
56171;SDS011;42052;41.634;-0.946;2024-02-14T01:01:23;7.43;;;4.32;;
56171;SDS011;42052;41.634;-0.946;2024-02-14T01:03:48;4.68;;;3.70;;
56171;SDS011;42052;41.634;-0.946;2024-02-14T01:06:14;6.70;;;4.40;;
56171;SDS011;42052;41.634;-0.946;2024-02-14T01:08:43;6.25;;;4.10;;
56171;SDS011;42052;41.634;-0.946;2024-02-14T01:11:09;6.60;;;4.35;;
56171;SDS011;42052;41.634;-0.946;2024-02-14T01:13:35;5.95;;;4.03;;
56171;SDS011;42052;41.634;-0.946;2024-02-14T01:16:02;5.43;;;4.20;;
56171;SDS011;42052;41.634;-0.946;2024-02-14T01:18:29;5.85;;;4.28;;
56171;SDS011;42052;41.634;-0.946;2024-02-14T01:20:55;6.22;;;4.07;;
56171;SDS011;42052;41.634;-0.946;2024-02-14T01:23:24;6.30;;;4.40;;
56171;SDS011;42052;41.634;-0.946;2024-02-14T01:25:50;5.93;;;3.90;;
56171;SDS011;42052;41.634;-0.946;2024-02-14T01:28:15;6.47;;;4.40;;
56171;SDS011;42052;41.634;-0.946;2024-02-14T01:30:42;5.30;;;4.00;;
56171;SDS011;42052;41.634;-0.946;2024-02-14T01:33:08;6.32;;;4.07;;
56171;SDS011;42052;41.634;-0.946;2024-02-14T01:35:34;7.15;;;4.68;;
56171;SDS011;42052;41.634;-0.946;2024-02-14T01:38:00;6.18;;;4.10;;
56171;SDS011;42052;41.634;-0.946;2024-02-14T01:40:28;6.25;;;4.57;;
56171;SDS011;42052;41.634;-0.946;2024-02-14T01:42:54;5.60;;;4.10;;
56171;SDS011;42052;41.634;-0.946;2024-02-14T01:45:20;6.10;;;3.88;;
56171;SDS011;42052;41.634;-0.946;2024-02-14T01:47:47;6.60;;;4.05;;
56171;SDS011;42052;41.634;-0.946;2024-02-14T01:50:15;5.43;;;4.15;;
56171;SDS011;42052;41.634;-0.946;2024-02-14T01:52:41;5.93;;;4.10;;
56171;SDS011;42052;41.634;-0.946;2024-02-14T01:55:09;9.63;;;4.20;;
56171;SDS011;42052;41.634;-0.946;2024-02-14T01:57:38;6.25;;;4.00;;
56171;SDS011;42052;41.634;-0.946;2024-02-14T02:00:06;5.85;;;4.07;;
56171;SDS011;42052;41.634;-0.946;2024-02-14T02:02:40;6.00;;;4.10;;
56171;SDS011;42052;41.634;-0.946;2024-02-14T02:05:06;5.47;;;4.20;;
56171;SDS011;42052;41.634;-0.946;2024-02-14T02:07:32;7.43;;;3.78;;
56171;SDS011;42052;41.634;-0.946;2024-02-14T02:09:58;5.30;;;3.85;;
56171;SDS011;42052;41.634;-0.946;2024-02-14T02:12:24;5.72;;;3.85;;
56171;SDS011;42052;41.634;-0.946;2024-02-14T02:14:52;6.70;;;4.28;;
56171;SDS011;42052;41.634;-0.946;2024-02-14T02:17:18;6.18;;;4.05;;
56171;SDS011;42052;41.634;-0.946;2024-02-14T02:19:47;6.65;;;4.10;;
56171;SDS011;42052;41.634;-0.946;2024-02-14T02:22:12;5.78;;;3.88;;
56171;SDS011;42052;41.634;-0.946;2024-02-14T02:24:38;6.00;;;4.13;;
56171;SDS011;42052;41.634;-0.946;2024-02-14T02:27:04;6.20;;;3.85;;
56171;SDS011;42052;41.634;-0.946;2024-02-14T02:29:30;5.22;;;3.88;;
56171;SDS011;42052;41.634;-0.946;2024-02-14T02:31:57;5.78;;;4.28;;
56171;SDS011;42052;41.634;-0.946;2024-02-14T02:34:23;6.30;;;4.45;;
56171;SDS011;42052;41.634;-0.946;2024-02-14T02:36:49;5.93;;;4.50;;
56171;SDS011;42052;41.634;-0.946;2024-02-14T02:39:16;5.40;;;4.10;;
56171;SDS011;42052;41.634;-0.946;2024-02-14T02:41:42;7.03;;;3.97;;
56171;SDS011;42052;41.634;-0.946;2024-02-14T02:44:12;5.93;;;3.90;;
56171;SDS011;42052;41.634;-0.946;2024-02-14T02:46:38;6.20;;;3.90;;
56171;SDS011;42052;41.634;-0.946;2024-02-14T02:49:04;4.75;;;3.85;;
56171;SDS011;42052;41.634;-0.946;2024-02-14T02:51:30;6.55;;;3.53;;
56171;SDS011;42052;41.634;-0.946;2024-02-14T02:53:56;5.47;;;4.00;;
56171;SDS011;42052;41.634;-0.946;2024-02-14T02:56:22;6.60;;;3.95;;
56171;SDS011;42052;41.634;-0.946;2024-02-14T02:58:52;6.85;;;4.20;;
56171;SDS011;42052;41.634;-0.946;2024-02-14T03:01:19;6.03;;;4.28;;
56171;SDS011;42052;41.634;-0.946;2024-02-14T03:03:45;6.60;;;4.22;;
56171;SDS011;42052;41.634;-0.946;2024-02-14T03:06:11;6.72;;;4.20;;
56171;SDS011;42052;41.634;-0.946;2024-02-14T03:08:37;4.95;;;3.85;;
56171;SDS011;42052;41.634;-0.946;2024-02-14T03:11:04;5.00;;;3.90;;
56171;SDS011;42052;41.634;-0.946;2024-02-14T03:13:31;5.25;;;3.78;;
56171;SDS011;42052;41.634;-0.946;2024-02-14T03:15:57;5.70;;;3.92;;
56171;SDS011;42052;41.634;-0.946;2024-02-14T03:18:24;6.45;;;4.45;;
56171;SDS011;42052;41.634;-0.946;2024-02-14T03:20:50;4.97;;;4.00;;
56171;SDS011;42052;41.634;-0.946;2024-02-14T03:23:17;5.45;;;4.05;;
56171;SDS011;42052;41.634;-0.946;2024-02-14T03:25:43;6.70;;;4.30;;
56171;SDS011;42052;41.634;-0.946;2024-02-14T03:28:09;5.45;;;3.70;;
56171;SDS011;42052;41.634;-0.946;2024-02-14T03:30:38;5.32;;;3.88;;
56171;SDS011;42052;41.634;-0.946;2024-02-14T03:33:06;5.78;;;4.38;;
56171;SDS011;42052;41.634;-0.946;2024-02-14T03:35:35;6.50;;;4.15;;
56171;SDS011;42052;41.634;-0.946;2024-02-14T03:38:01;6.30;;;4.03;;
56171;SDS011;42052;41.634;-0.946;2024-02-14T03:40:28;6.53;;;4.30;;
56171;SDS011;42052;41.634;-0.946;2024-02-14T03:42:55;6.40;;;3.90;;
56171;SDS011;42052;41.634;-0.946;2024-02-14T03:45:22;7.93;;;4.07;;
56171;SDS011;42052;41.634;-0.946;2024-02-14T03:47:48;6.80;;;4.45;;
56171;SDS011;42052;41.634;-0.946;2024-02-14T03:50:14;6.32;;;4.10;;
56171;SDS011;42052;41.634;-0.946;2024-02-14T03:52:41;5.22;;;3.72;;
56171;SDS011;42052;41.634;-0.946;2024-02-14T03:55:10;5.82;;;4.10;;
56171;SDS011;42052;41.634;-0.946;2024-02-14T03:57:38;5.55;;;4.15;;
56171;SDS011;42052;41.634;-0.946;2024-02-14T04:00:05;5.18;;;4.18;;
56171;SDS011;42052;41.634;-0.946;2024-02-14T04:02:35;6.30;;;4.20;;
56171;SDS011;42052;41.634;-0.946;2024-02-14T04:05:01;6.40;;;4.18;;
56171;SDS011;42052;41.634;-0.946;2024-02-14T04:07:32;6.43;;;4.00;;
56171;SDS011;42052;41.634;-0.946;2024-02-14T04:09:59;6.05;;;4.13;;
56171;SDS011;42052;41.634;-0.946;2024-02-14T04:12:25;5.93;;;3.95;;
56171;SDS011;42052;41.634;-0.946;2024-02-14T04:14:51;6.07;;;4.00;;
56171;SDS011;42052;41.634;-0.946;2024-02-14T04:17:17;4.95;;;3.55;;
56171;SDS011;42052;41.634;-0.946;2024-02-14T04:19:43;5.97;;;4.07;;
56171;SDS011;42052;41.634;-0.946;2024-02-14T04:22:08;7.90;;;4.13;;
56171;SDS011;42052;41.634;-0.946;2024-02-14T04:24:35;6.18;;;4.30;;
56171;SDS011;42052;41.634;-0.946;2024-02-14T04:27:01;4.65;;;3.80;;
56171;SDS011;42052;41.634;-0.946;2024-02-14T04:29:30;7.20;;;4.30;;
56171;SDS011;42052;41.634;-0.946;2024-02-14T04:32:01;6.15;;;4.03;;
56171;SDS011;42052;41.634;-0.946;2024-02-14T04:34:27;6.18;;;4.03;;
56171;SDS011;42052;41.634;-0.946;2024-02-14T04:36:53;7.00;;;4.15;;
56171;SDS011;42052;41.634;-0.946;2024-02-14T04:39:19;7.05;;;4.10;;
56171;SDS011;42052;41.634;-0.946;2024-02-14T04:41:45;6.15;;;3.72;;
56171;SDS011;42052;41.634;-0.946;2024-02-14T04:44:11;6.28;;;4.00;;
56171;SDS011;42052;41.634;-0.946;2024-02-14T04:46:37;5.03;;;3.92;;
56171;SDS011;42052;41.634;-0.946;2024-02-14T04:49:03;6.57;;;4.43;;
56171;SDS011;42052;41.634;-0.946;2024-02-14T04:51:29;5.82;;;4.28;;
56171;SDS011;42052;41.634;-0.946;2024-02-14T04:53:56;5.38;;;4.05;;
56171;SDS011;42052;41.634;-0.946;2024-02-14T04:56:28;6.07;;;4.38;;
56171;SDS011;42052;41.634;-0.946;2024-02-14T04:58:54;6.53;;;4.10;;
56171;SDS011;42052;41.634;-0.946;2024-02-14T05:01:20;5.72;;;4.00;;
56171;SDS011;42052;41.634;-0.946;2024-02-14T05:03:46;5.63;;;4.15;;
56171;SDS011;42052;41.634;-0.946;2024-02-14T05:06:13;5.53;;;3.85;;
56171;SDS011;42052;41.634;-0.946;2024-02-14T05:08:39;5.85;;;4.00;;
56171;SDS011;42052;41.634;-0.946;2024-02-14T05:11:05;5.38;;;3.80;;
56171;SDS011;42052;41.634;-0.946;2024-02-14T05:13:31;5.15;;;4.05;;
56171;SDS011;42052;41.634;-0.946;2024-02-14T05:15:57;6.38;;;3.88;;
56171;SDS011;42052;41.634;-0.946;2024-02-14T05:18:23;5.78;;;3.97;;
56171;SDS011;42052;41.634;-0.946;2024-02-14T05:20:49;6.20;;;3.95;;
56171;SDS011;42052;41.634;-0.946;2024-02-14T05:23:16;6.65;;;3.85;;
56171;SDS011;42052;41.634;-0.946;2024-02-14T05:25:44;7.05;;;4.00;;
56171;SDS011;42052;41.634;-0.946;2024-02-14T05:28:10;6.40;;;4.40;;
56171;SDS011;42052;41.634;-0.946;2024-02-14T05:30:39;5.63;;;4.07;;
56171;SDS011;42052;41.634;-0.946;2024-02-14T05:33:05;5.10;;;3.88;;
56171;SDS011;42052;41.634;-0.946;2024-02-14T05:35:31;6.00;;;3.95;;
56171;SDS011;42052;41.634;-0.946;2024-02-14T05:37:57;6.25;;;4.22;;
56171;SDS011;42052;41.634;-0.946;2024-02-14T05:40:23;6.82;;;4.13;;
56171;SDS011;42052;41.634;-0.946;2024-02-14T05:42:49;6.35;;;4.20;;
56171;SDS011;42052;41.634;-0.946;2024-02-14T05:45:15;6.70;;;4.15;;
56171;SDS011;42052;41.634;-0.946;2024-02-14T05:47:41;5.90;;;4.38;;
56171;SDS011;42052;41.634;-0.946;2024-02-14T05:50:08;6.80;;;4.40;;
56171;SDS011;42052;41.634;-0.946;2024-02-14T05:52:36;5.30;;;3.72;;
56171;SDS011;42052;41.634;-0.946;2024-02-14T05:55:03;5.93;;;4.18;;
56171;SDS011;42052;41.634;-0.946;2024-02-14T05:57:30;6.90;;;4.15;;
56171;SDS011;42052;41.634;-0.946;2024-02-14T05:59:56;7.03;;;4.03;;
56171;SDS011;42052;41.634;-0.946;2024-02-14T06:02:22;6.43;;;3.88;;
56171;SDS011;42052;41.634;-0.946;2024-02-14T06:04:48;6.10;;;4.55;;
56171;SDS011;42052;41.634;-0.946;2024-02-14T06:07:13;7.45;;;4.60;;
56171;SDS011;42052;41.634;-0.946;2024-02-14T06:09:39;6.82;;;4.45;;
56171;SDS011;42052;41.634;-0.946;2024-02-14T06:12:06;6.60;;;4.22;;
56171;SDS011;42052;41.634;-0.946;2024-02-14T06:14:32;5.22;;;4.00;;
56171;SDS011;42052;41.634;-0.946;2024-02-14T06:16:59;5.00;;;3.92;;
56171;SDS011;42052;41.634;-0.946;2024-02-14T06:19:26;6.13;;;3.80;;
56171;SDS011;42052;41.634;-0.946;2024-02-14T06:21:53;6.32;;;4.10;;
56171;SDS011;42052;41.634;-0.946;2024-02-14T06:24:19;5.68;;;3.60;;
56171;SDS011;42052;41.634;-0.946;2024-02-14T06:26:45;6.32;;;4.13;;
56171;SDS011;42052;41.634;-0.946;2024-02-14T06:29:11;6.18;;;4.00;;
56171;SDS011;42052;41.634;-0.946;2024-02-14T06:31:40;6.57;;;4.10;;
56171;SDS011;42052;41.634;-0.946;2024-02-14T06:34:06;8.60;;;4.20;;
56171;SDS011;42052;41.634;-0.946;2024-02-14T06:36:33;7.43;;;4.22;;
56171;SDS011;42052;41.634;-0.946;2024-02-14T06:38:59;5.85;;;3.88;;
56171;SDS011;42052;41.634;-0.946;2024-02-14T06:41:25;5.35;;;3.90;;
56171;SDS011;42052;41.634;-0.946;2024-02-14T06:43:51;10.05;;;3.97;;
56171;SDS011;42052;41.634;-0.946;2024-02-14T06:46:17;8.52;;;4.32;;
56171;SDS011;42052;41.634;-0.946;2024-02-14T06:48:43;8.23;;;4.00;;
56171;SDS011;42052;41.634;-0.946;2024-02-14T06:51:10;6.57;;;3.95;;
56171;SDS011;42052;41.634;-0.946;2024-02-14T06:53:36;7.35;;;3.92;;
56171;SDS011;42052;41.634;-0.946;2024-02-14T06:56:02;6.13;;;4.22;;
56171;SDS011;42052;41.634;-0.946;2024-02-14T06:58:28;7.90;;;4.00;;
56171;SDS011;42052;41.634;-0.946;2024-02-14T07:00:55;4.82;;;3.88;;
56171;SDS011;42052;41.634;-0.946;2024-02-14T07:03:21;6.40;;;4.07;;
56171;SDS011;42052;41.634;-0.946;2024-02-14T07:05:47;5.20;;;3.80;;
56171;SDS011;42052;41.634;-0.946;2024-02-14T07:08:13;5.38;;;4.00;;
56171;SDS011;42052;41.634;-0.946;2024-02-14T07:10:40;5.57;;;3.78;;
56171;SDS011;42052;41.634;-0.946;2024-02-14T07:13:06;6.90;;;4.10;;
56171;SDS011;42052;41.634;-0.946;2024-02-14T07:15:32;6.47;;;3.95;;
56171;SDS011;42052;41.634;-0.946;2024-02-14T07:17:57;6.20;;;4.13;;
56171;SDS011;42052;41.634;-0.946;2024-02-14T07:20:24;6.43;;;3.80;;
56171;SDS011;42052;41.634;-0.946;2024-02-14T07:22:51;6.22;;;4.22;;
56171;SDS011;42052;41.634;-0.946;2024-02-14T07:25:22;5.82;;;4.03;;
56171;SDS011;42052;41.634;-0.946;2024-02-14T07:27:48;7.43;;;3.75;;
56171;SDS011;42052;41.634;-0.946;2024-02-14T07:30:17;5.97;;;4.00;;
56171;SDS011;42052;41.634;-0.946;2024-02-14T07:32:43;5.82;;;4.07;;
56171;SDS011;42052;41.634;-0.946;2024-02-14T07:35:10;7.80;;;4.38;;
56171;SDS011;42052;41.634;-0.946;2024-02-14T07:37:38;7.13;;;4.40;;
56171;SDS011;42052;41.634;-0.946;2024-02-14T07:40:05;4.65;;;3.70;;
56171;SDS011;42052;41.634;-0.946;2024-02-14T07:42:31;6.95;;;4.15;;
56171;SDS011;42052;41.634;-0.946;2024-02-14T07:44:57;7.95;;;4.25;;
56171;SDS011;42052;41.634;-0.946;2024-02-14T07:47:23;5.55;;;3.97;;
56171;SDS011;42052;41.634;-0.946;2024-02-14T07:49:49;6.90;;;3.97;;
56171;SDS011;42052;41.634;-0.946;2024-02-14T07:52:15;5.68;;;3.80;;
56171;SDS011;42052;41.634;-0.946;2024-02-14T07:54:40;6.93;;;4.10;;
56171;SDS011;42052;41.634;-0.946;2024-02-14T07:57:07;5.28;;;4.10;;
56171;SDS011;42052;41.634;-0.946;2024-02-14T07:59:33;5.82;;;3.90;;
56171;SDS011;42052;41.634;-0.946;2024-02-14T08:01:58;6.07;;;3.83;;
56171;SDS011;42052;41.634;-0.946;2024-02-14T08:04:24;6.18;;;4.00;;
56171;SDS011;42052;41.634;-0.946;2024-02-14T08:06:50;6.10;;;3.75;;
56171;SDS011;42052;41.634;-0.946;2024-02-14T08:09:16;6.35;;;4.25;;
56171;SDS011;42052;41.634;-0.946;2024-02-14T08:11:42;7.50;;;4.07;;
56171;SDS011;42052;41.634;-0.946;2024-02-14T08:14:08;6.82;;;4.10;;
56171;SDS011;42052;41.634;-0.946;2024-02-14T08:16:34;7.18;;;4.20;;
56171;SDS011;42052;41.634;-0.946;2024-02-14T08:19:01;6.95;;;4.28;;
56171;SDS011;42052;41.634;-0.946;2024-02-14T08:21:28;8.70;;;4.20;;
56171;SDS011;42052;41.634;-0.946;2024-02-14T08:23:54;5.07;;;3.90;;
56171;SDS011;42052;41.634;-0.946;2024-02-14T08:26:21;6.18;;;4.30;;
56171;SDS011;42052;41.634;-0.946;2024-02-14T08:28:48;6.50;;;4.30;;
56171;SDS011;42052;41.634;-0.946;2024-02-14T08:31:14;5.72;;;3.83;;
56171;SDS011;42052;41.634;-0.946;2024-02-14T08:33:40;6.63;;;4.03;;
56171;SDS011;42052;41.634;-0.946;2024-02-14T08:36:06;6.28;;;4.30;;
56171;SDS011;42052;41.634;-0.946;2024-02-14T08:38:32;5.15;;;3.72;;
56171;SDS011;42052;41.634;-0.946;2024-02-14T08:41:00;6.00;;;4.05;;
56171;SDS011;42052;41.634;-0.946;2024-02-14T08:43:29;7.53;;;4.20;;
56171;SDS011;42052;41.634;-0.946;2024-02-14T08:45:55;5.57;;;4.00;;
56171;SDS011;42052;41.634;-0.946;2024-02-14T08:48:21;6.47;;;4.00;;
56171;SDS011;42052;41.634;-0.946;2024-02-14T08:50:47;5.57;;;3.80;;
56171;SDS011;42052;41.634;-0.946;2024-02-14T08:53:13;5.32;;;4.07;;
56171;SDS011;42052;41.634;-0.946;2024-02-14T08:55:39;6.00;;;4.22;;
56171;SDS011;42052;41.634;-0.946;2024-02-14T08:58:06;6.97;;;3.95;;
56171;SDS011;42052;41.634;-0.946;2024-02-14T09:00:31;6.05;;;3.90;;
56171;SDS011;42052;41.634;-0.946;2024-02-14T09:03:00;5.63;;;4.20;;
56171;SDS011;42052;41.634;-0.946;2024-02-14T09:05:26;5.82;;;4.10;;
56171;SDS011;42052;41.634;-0.946;2024-02-14T09:07:53;5.20;;;3.83;;
56171;SDS011;42052;41.634;-0.946;2024-02-14T09:10:19;5.82;;;3.85;;
56171;SDS011;42052;41.634;-0.946;2024-02-14T09:12:45;4.97;;;3.92;;
56171;SDS011;42052;41.634;-0.946;2024-02-14T09:15:11;6.80;;;4.18;;
56171;SDS011;42052;41.634;-0.946;2024-02-14T09:17:38;7.93;;;4.00;;
56171;SDS011;42052;41.634;-0.946;2024-02-14T09:20:05;5.82;;;3.78;;
56171;SDS011;42052;41.634;-0.946;2024-02-14T09:22:35;5.45;;;3.97;;
56171;SDS011;42052;41.634;-0.946;2024-02-14T09:25:01;6.72;;;3.97;;
56171;SDS011;42052;41.634;-0.946;2024-02-14T09:27:31;5.65;;;3.80;;
56171;SDS011;42052;41.634;-0.946;2024-02-14T09:29:58;5.53;;;3.95;;
56171;SDS011;42052;41.634;-0.946;2024-02-14T09:32:24;6.28;;;3.80;;
56171;SDS011;42052;41.634;-0.946;2024-02-14T09:34:50;6.75;;;4.10;;
56171;SDS011;42052;41.634;-0.946;2024-02-14T09:37:16;6.32;;;4.32;;
56171;SDS011;42052;41.634;-0.946;2024-02-14T09:39:42;5.32;;;3.63;;
56171;SDS011;42052;41.634;-0.946;2024-02-14T09:42:09;6.38;;;3.92;;
56171;SDS011;42052;41.634;-0.946;2024-02-14T09:44:38;6.15;;;3.75;;
56171;SDS011;42052;41.634;-0.946;2024-02-14T09:47:06;5.95;;;3.80;;
56171;SDS011;42052;41.634;-0.946;2024-02-14T09:49:35;6.10;;;4.05;;
56171;SDS011;42052;41.634;-0.946;2024-02-14T09:52:02;5.93;;;3.83;;
56171;SDS011;42052;41.634;-0.946;2024-02-14T09:54:28;5.53;;;3.72;;
56171;SDS011;42052;41.634;-0.946;2024-02-14T09:56:56;4.88;;;3.80;;
56171;SDS011;42052;41.634;-0.946;2024-02-14T09:59:23;6.13;;;3.72;;
56171;SDS011;42052;41.634;-0.946;2024-02-14T10:01:49;5.85;;;3.60;;
56171;SDS011;42052;41.634;-0.946;2024-02-14T10:04:16;4.95;;;3.70;;
56171;SDS011;42052;41.634;-0.946;2024-02-14T10:06:44;6.25;;;3.90;;
56171;SDS011;42052;41.634;-0.946;2024-02-14T10:09:10;4.95;;;3.40;;
56171;SDS011;42052;41.634;-0.946;2024-02-14T10:11:37;5.45;;;3.30;;
56171;SDS011;42052;41.634;-0.946;2024-02-14T10:14:06;5.03;;;3.35;;
56171;SDS011;42052;41.634;-0.946;2024-02-14T10:16:37;6.93;;;3.60;;
56171;SDS011;42052;41.634;-0.946;2024-02-14T10:19:02;4.75;;;3.40;;
56171;SDS011;42052;41.634;-0.946;2024-02-14T10:21:33;5.28;;;3.90;;
56171;SDS011;42052;41.634;-0.946;2024-02-14T10:23:59;4.53;;;3.20;;
56171;SDS011;42052;41.634;-0.946;2024-02-14T10:26:25;4.65;;;3.33;;
56171;SDS011;42052;41.634;-0.946;2024-02-14T10:28:51;5.78;;;3.50;;
56171;SDS011;42052;41.634;-0.946;2024-02-14T10:31:17;4.88;;;3.28;;
56171;SDS011;42052;41.634;-0.946;2024-02-14T10:33:43;6.00;;;3.70;;
56171;SDS011;42052;41.634;-0.946;2024-02-14T10:36:09;6.30;;;3.30;;
56171;SDS011;42052;41.634;-0.946;2024-02-14T10:38:38;5.72;;;3.33;;
56171;SDS011;42052;41.634;-0.946;2024-02-14T10:41:05;4.35;;;3.17;;
56171;SDS011;42052;41.634;-0.946;2024-02-14T10:43:32;3.95;;;3.25;;
56171;SDS011;42052;41.634;-0.946;2024-02-14T10:45:59;5.15;;;3.05;;
56171;SDS011;42052;41.634;-0.946;2024-02-14T10:48:31;5.28;;;3.50;;
56171;SDS011;42052;41.634;-0.946;2024-02-14T10:50:59;5.07;;;3.67;;
56171;SDS011;42052;41.634;-0.946;2024-02-14T10:53:28;5.97;;;3.53;;
56171;SDS011;42052;41.634;-0.946;2024-02-14T10:55:58;5.50;;;3.55;;
56171;SDS011;42052;41.634;-0.946;2024-02-14T10:58:25;4.70;;;3.72;;
56171;SDS011;42052;41.634;-0.946;2024-02-14T11:00:55;4.60;;;3.35;;
56171;SDS011;42052;41.634;-0.946;2024-02-14T11:03:22;3.95;;;3.20;;
56171;SDS011;42052;41.634;-0.946;2024-02-14T11:05:49;4.78;;;3.22;;
56171;SDS011;42052;41.634;-0.946;2024-02-14T11:08:18;5.32;;;3.08;;
56171;SDS011;42052;41.634;-0.946;2024-02-14T11:10:55;4.03;;;3.00;;
56171;SDS011;42052;41.634;-0.946;2024-02-14T11:13:26;5.60;;;3.10;;
56171;SDS011;42052;41.634;-0.946;2024-02-14T11:16:04;5.28;;;2.95;;
56171;SDS011;42052;41.634;-0.946;2024-02-14T11:18:34;4.88;;;3.17;;
56171;SDS011;42052;41.634;-0.946;2024-02-14T11:21:04;3.88;;;3.05;;
56171;SDS011;42052;41.634;-0.946;2024-02-14T11:23:30;3.80;;;3.00;;
56171;SDS011;42052;41.634;-0.946;2024-02-14T11:26:03;3.97;;;3.15;;
56171;SDS011;42052;41.634;-0.946;2024-02-14T11:28:36;5.55;;;3.35;;
56171;SDS011;42052;41.634;-0.946;2024-02-14T11:31:06;5.43;;;3.40;;
56171;SDS011;42052;41.634;-0.946;2024-02-14T11:33:34;5.50;;;3.35;;
56171;SDS011;42052;41.634;-0.946;2024-02-14T11:36:07;4.68;;;3.20;;
56171;SDS011;42052;41.634;-0.946;2024-02-14T11:38:36;4.50;;;3.17;;
56171;SDS011;42052;41.634;-0.946;2024-02-14T11:41:05;4.93;;;3.10;;
56171;SDS011;42052;41.634;-0.946;2024-02-14T11:43:32;5.20;;;3.38;;
56171;SDS011;42052;41.634;-0.946;2024-02-14T11:45:58;4.30;;;3.20;;
56171;SDS011;42052;41.634;-0.946;2024-02-14T11:48:24;4.32;;;3.03;;
56171;SDS011;42052;41.634;-0.946;2024-02-14T11:50:51;4.00;;;3.00;;
56171;SDS011;42052;41.634;-0.946;2024-02-14T11:53:19;7.00;;;3.45;;
56171;SDS011;42052;41.634;-0.946;2024-02-14T11:55:46;7.53;;;3.35;;
56171;SDS011;42052;41.634;-0.946;2024-02-14T11:58:12;8.30;;;3.33;;
56171;SDS011;42052;41.634;-0.946;2024-02-14T12:00:45;7.20;;;3.45;;
56171;SDS011;42052;41.634;-0.946;2024-02-14T12:03:12;5.32;;;3.17;;
56171;SDS011;42052;41.634;-0.946;2024-02-14T12:05:43;5.00;;;3.10;;
56171;SDS011;42052;41.634;-0.946;2024-02-14T12:08:12;4.97;;;2.90;;
56171;SDS011;42052;41.634;-0.946;2024-02-14T12:10:39;6.72;;;2.92;;
56171;SDS011;42052;41.634;-0.946;2024-02-14T12:13:08;4.28;;;2.90;;
56171;SDS011;42052;41.634;-0.946;2024-02-14T12:15:40;6.03;;;3.50;;
56171;SDS011;42052;41.634;-0.946;2024-02-14T12:18:10;5.13;;;3.22;;
56171;SDS011;42052;41.634;-0.946;2024-02-14T12:20:40;6.32;;;3.15;;
56171;SDS011;42052;41.634;-0.946;2024-02-14T12:23:08;5.20;;;2.95;;
56171;SDS011;42052;41.634;-0.946;2024-02-14T12:25:43;5.55;;;3.17;;
56171;SDS011;42052;41.634;-0.946;2024-02-14T12:28:13;6.68;;;3.08;;
56171;SDS011;42052;41.634;-0.946;2024-02-14T12:30:59;6.40;;;3.20;;
56171;SDS011;42052;41.634;-0.946;2024-02-14T12:33:25;4.90;;;2.85;;
56171;SDS011;42052;41.634;-0.946;2024-02-14T12:35:53;4.60;;;2.70;;
56171;SDS011;42052;41.634;-0.946;2024-02-14T12:38:20;4.22;;;3.03;;
56171;SDS011;42052;41.634;-0.946;2024-02-14T12:40:48;4.85;;;2.97;;
56171;SDS011;42052;41.634;-0.946;2024-02-14T12:43:14;5.30;;;2.92;;
56171;SDS011;42052;41.634;-0.946;2024-02-14T12:45:41;5.38;;;3.00;;
56171;SDS011;42052;41.634;-0.946;2024-02-14T12:48:08;4.95;;;3.20;;
56171;SDS011;42052;41.634;-0.946;2024-02-14T12:50:35;4.60;;;2.75;;
56171;SDS011;42052;41.634;-0.946;2024-02-14T12:53:09;5.28;;;3.33;;
56171;SDS011;42052;41.634;-0.946;2024-02-14T12:55:35;5.10;;;2.92;;
56171;SDS011;42052;41.634;-0.946;2024-02-14T12:58:01;6.32;;;2.92;;
56171;SDS011;42052;41.634;-0.946;2024-02-14T13:00:28;7.15;;;3.10;;
56171;SDS011;42052;41.634;-0.946;2024-02-14T13:02:56;5.97;;;2.97;;
56171;SDS011;42052;41.634;-0.946;2024-02-14T13:05:22;7.25;;;3.10;;
56171;SDS011;42052;41.634;-0.946;2024-02-14T13:07:48;5.30;;;2.58;;
56171;SDS011;42052;41.634;-0.946;2024-02-14T13:10:13;5.78;;;2.97;;
56171;SDS011;42052;41.634;-0.946;2024-02-14T13:12:39;4.38;;;3.00;;
56171;SDS011;42052;41.634;-0.946;2024-02-14T13:15:06;6.00;;;2.85;;
56171;SDS011;42052;41.634;-0.946;2024-02-14T13:17:32;6.45;;;2.85;;
56171;SDS011;42052;41.634;-0.946;2024-02-14T13:19:58;4.20;;;2.78;;
56171;SDS011;42052;41.634;-0.946;2024-02-14T13:22:27;4.18;;;3.00;;
56171;SDS011;42052;41.634;-0.946;2024-02-14T13:24:53;4.28;;;2.78;;
56171;SDS011;42052;41.634;-0.946;2024-02-14T13:27:19;4.47;;;2.67;;
56171;SDS011;42052;41.634;-0.946;2024-02-14T13:29:46;4.43;;;2.70;;
56171;SDS011;42052;41.634;-0.946;2024-02-14T13:32:12;6.25;;;2.80;;
56171;SDS011;42052;41.634;-0.946;2024-02-14T13:34:38;3.75;;;2.80;;
56171;SDS011;42052;41.634;-0.946;2024-02-14T13:37:04;4.75;;;2.60;;
56171;SDS011;42052;41.634;-0.946;2024-02-14T13:39:30;6.25;;;2.60;;
56171;SDS011;42052;41.634;-0.946;2024-02-14T13:41:56;5.50;;;2.50;;
56171;SDS011;42052;41.634;-0.946;2024-02-14T13:44:24;5.15;;;2.90;;
56171;SDS011;42052;41.634;-0.946;2024-02-14T13:46:50;4.05;;;2.70;;
56171;SDS011;42052;41.634;-0.946;2024-02-14T13:49:17;4.22;;;2.50;;
56171;SDS011;42052;41.634;-0.946;2024-02-14T13:51:55;5.50;;;2.92;;
56171;SDS011;42052;41.634;-0.946;2024-02-14T13:54:23;4.80;;;2.35;;
56171;SDS011;42052;41.634;-0.946;2024-02-14T13:56:49;4.03;;;2.70;;
56171;SDS011;42052;41.634;-0.946;2024-02-14T13:59:15;5.68;;;2.78;;
56171;SDS011;42052;41.634;-0.946;2024-02-14T14:01:42;5.13;;;2.50;;
56171;SDS011;42052;41.634;-0.946;2024-02-14T14:04:08;5.03;;;2.55;;
56171;SDS011;42052;41.634;-0.946;2024-02-14T14:06:34;3.90;;;2.40;;
56171;SDS011;42052;41.634;-0.946;2024-02-14T14:09:00;4.97;;;2.80;;
56171;SDS011;42052;41.634;-0.946;2024-02-14T14:11:28;3.15;;;2.55;;
56171;SDS011;42052;41.634;-0.946;2024-02-14T14:13:54;4.35;;;2.60;;
56171;SDS011;42052;41.634;-0.946;2024-02-14T14:16:20;3.80;;;2.60;;
56171;SDS011;42052;41.634;-0.946;2024-02-14T14:18:48;4.75;;;2.50;;
56171;SDS011;42052;41.634;-0.946;2024-02-14T14:21:15;4.60;;;2.45;;
56171;SDS011;42052;41.634;-0.946;2024-02-14T14:23:41;3.97;;;2.55;;
56171;SDS011;42052;41.634;-0.946;2024-02-14T14:26:08;3.50;;;2.58;;
56171;SDS011;42052;41.634;-0.946;2024-02-14T14:28:34;4.80;;;2.42;;
56171;SDS011;42052;41.634;-0.946;2024-02-14T14:31:00;2.70;;;2.40;;